Don Carlos — 9V9243 — position and weather

sailwx.info

Track history (hours):
 
Tides and Currents Weather Stations Pressure Air Temp Water Temp Dewpoint Dewpoint Depression Visibility Wind Speed Wind Dir Waves Ship Positions

Don Carlos

Last reported at 2018-Jan-12 05:50 UTC. Time now 2018-Jan-19 11:55 UTC.
Position N 38°15' W 124°15'.

Length 228 m; draft 8.7 m.

Type: Cargo ship. MMSI: 566088000.

Date/timePositionNaut miles runAvg speedWind from/ knotsBaromVisibWave heightAir tempDewpointWater temp
2018-Jan-12 05:50N 38°15' W 124°15'1413.3
2018-Jan-12 04:46N 38°01' W 124°09'413.4
2018-Jan-12 04:29N 37°57' W 124°08'713.3
2018-Jan-12 03:57N 37°50' W 124°06'713.5
2018-Jan-12 03:26N 37°44' W 124°03'613.4
2018-Jan-12 03:00N 37°38' W 124°02'713.0
2018-Jan-12 02:30N 37°32' W 123°58'713.1
2018-Jan-12 02:00N 37°27' W 123°53'713.3
2018-Jan-12 01:30N 37°22' W 123°48'713.0
2018-Jan-12 01:00N 37°17' W 123°43'713.1
2018-Jan-12 00:30N 37°11' W 123°38'713.2
2018-Jan-12 00:00N 37°06' W 123°33'713.0
2018-Jan-11 23:30N 37°01' W 123°28'713.0
2018-Jan-11 23:00N 36°56' W 123°23'612.9
2018-Jan-11 22:30N 36°51' W 123°18'612.8
2018-Jan-11 22:00N 36°46' W 123°13'612.8
2018-Jan-11 21:30N 36°41' W 123°08'612.8
2018-Jan-11 21:00N 36°36' W 123°03'713.0
2018-Jan-11 20:28N 36°30' W 122°58'812.8
2018-Jan-11 19:49N 36°23' W 122°52'412.9
2018-Jan-11 19:30N 36°20' W 122°49'612.9
2018-Jan-11 19:00N 36°15' W 122°44'713.0
2018-Jan-11 18:30N 36°10' W 122°39'713.3
2018-Jan-11 18:00N 36°05' W 122°34'713.2
2018-Jan-11 17:30N 35°59' W 122°29'713.0
2018-Jan-11 17:00N 35°54' W 122°24'713.2
2018-Jan-11 16:30N 35°49' W 122°19'713.4
2018-Jan-11 16:00N 35°44' W 122°14'713.2
2018-Jan-11 15:30N 35°39' W 122°10'713.2
2018-Jan-11 14:59N 35°33' W 122°05'613.2
2018-Jan-11 14:30N 35°28' W 121°60'713.4
2018-Jan-11 14:00N 35°23' W 121°54'713.4
2018-Jan-11 13:30N 35°17' W 121°50'713.5
2018-Jan-11 13:01N 35°12' W 121°45'713.3
2018-Jan-11 12:31N 35°07' W 121°40'713.5
2018-Jan-11 12:01N 35°01' W 121°35'713.2
2018-Jan-11 11:31N 34°56' W 121°30'713.2
2018-Jan-11 11:00N 34°51' W 121°25'713.2
2018-Jan-11 10:31N 34°46' W 121°20'612.9
2018-Jan-11 10:00N 34°41' W 121°15'612.6
2018-Jan-11 09:31N 34°36' W 121°10'612.5
2018-Jan-11 09:00N 34°32' W 121°04'612.9
2018-Jan-11 08:30N 34°29' W 120°58'612.7
2018-Jan-11 08:01N 34°26' W 120°51'712.4
2018-Jan-11 07:29N 34°24' W 120°43'612.3
2018-Jan-11 07:00N 34°23' W 120°36'812.5
2018-Jan-11 06:23N 34°21' W 120°27'512.8
2018-Jan-11 06:00N 34°19' W 120°21'613.0
2018-Jan-11 05:30N 34°18' W 120°14'613.1
2018-Jan-11 05:01N 34°16' W 120°06'712.9
2018-Jan-11 04:29N 34°14' W 119°58'612.8
2018-Jan-11 04:00N 34°12' W 119°51'612.8
2018-Jan-11 03:30N 34°11' W 119°44'712.9
2018-Jan-11 03:00N 34°09' W 119°36'713.2
2018-Jan-11 02:30N 34°07' W 119°29'714.4
2018-Jan-11 01:59N 34°06' W 119°20'611.4
2018-Jan-11 01:28N 34°08' W 119°13'1 2.4
2018-Jan-11 00:55N 34°09' W 119°12'0 0.0
2018-Jan-10 23:11N 34°09' W 119°12'0 0.0
2018-Jan-10 19:26N 34°09' W 119°12'0 0.0
2018-Jan-10 14:19N 34°09' W 119°12'0 0.0
2018-Jan-10 13:53N 34°09' W 119°12'0 0.3
2018-Jan-10 13:30N 34°09' W 119°12'3 5.9
2018-Jan-10 13:00N 34°07' W 119°14'4 7.2
2018-Jan-10 12:28N 34°03' W 119°13'510.4
2018-Jan-10 11:58N 34°00' W 119°08'510.4
2018-Jan-10 11:30N 33°58' W 119°03'610.1
2018-Jan-10 10:57N 33°55' W 118°57'511.0
2018-Jan-10 10:30N 33°53' W 118°51'510.9
2018-Jan-10 10:00N 33°50' W 118°46'611.3
2018-Jan-10 09:29N 33°47' W 118°40'611.4
2018-Jan-10 09:00N 33°45' W 118°34'510.9
2018-Jan-10 08:30N 33°42' W 118°28'510.8
2018-Jan-10 08:00N 33°39' W 118°23'611.3
2018-Jan-10 07:27N 33°38' W 118°15'2111.5
2018-Jan-10 05:36N 33°19' W 118°02'112.8
2018-Jan-10 05:30N 33°18' W 118°02'713.2
2018-Jan-10 05:00N 33°12' W 117°59'713.9
2018-Jan-10 04:30N 33°06' W 117°57'713.9
2018-Jan-10 04:00N 32°59' W 117°54'713.8
2018-Jan-10 03:30N 32°52' W 117°51'713.7
2018-Jan-10 03:00N 32°46' W 117°48'613.3
2018-Jan-10 02:31N 32°40' W 117°45'815.3
2018-Jan-10 02:00N 32°33' W 117°42'815.5
2018-Jan-10 01:31N 32°25' W 117°39'  
2018-Jan-02 11:25N 09°17' W 079°55'0 0.3
2018-Jan-02 11:00N 09°17' W 079°55'2 3.3
2018-Jan-02 10:30N 09°19' W 079°55'4 8.5
2018-Jan-02 10:00N 09°23' W 079°55'3 6.3
2018-Jan-02 09:31N 09°26' W 079°54'2 1.6
2018-Jan-02 08:29N 09°27' W 079°53'0 0.0
2018-Jan-02 07:59N 09°26' W 079°53'0 0.1
2018-Jan-02 07:29N 09°26' W 079°53'0 0.0
2018-Jan-02 06:53N 09°26' W 079°53'0 0.0
2018-Jan-02 06:29N 09°26' W 079°53'0 0.0
2018-Jan-02 05:59N 09°26' W 079°53'  
Track history (hours):
 
Tides and Currents Weather Stations Pressure Air Temp Water Temp Dewpoint Dewpoint Depression Visibility Wind Speed Wind Dir Waves Ship Positions

Don Carlos

Last reported at 2018-Jan-12 05:50 UTC. Time now 2018-Jan-19 11:55 UTC.
Position N 38°15' W 124°15'.

Length 228 m; draft 8.7 m.

Type: Cargo ship. MMSI: 566088000.

Date/timePositionNaut miles runAvg speedWind from/ knotsBaromVisibWave heightAir tempDewpointWater temp
2018-Jan-12 05:50N 38°15' W 124°15'1413.3
2018-Jan-12 04:46N 38°01' W 124°09'413.4
2018-Jan-12 04:29N 37°57' W 124°08'713.3
2018-Jan-12 03:57N 37°50' W 124°06'713.5
2018-Jan-12 03:26N 37°44' W 124°03'613.4
2018-Jan-12 03:00N 37°38' W 124°02'713.0
2018-Jan-12 02:30N 37°32' W 123°58'713.1
2018-Jan-12 02:00N 37°27' W 123°53'713.3
2018-Jan-12 01:30N 37°22' W 123°48'713.0
2018-Jan-12 01:00N 37°17' W 123°43'713.1
2018-Jan-12 00:30N 37°11' W 123°38'713.2
2018-Jan-12 00:00N 37°06' W 123°33'713.0
2018-Jan-11 23:30N 37°01' W 123°28'713.0
2018-Jan-11 23:00N 36°56' W 123°23'612.9
2018-Jan-11 22:30N 36°51' W 123°18'612.8
2018-Jan-11 22:00N 36°46' W 123°13'612.8
2018-Jan-11 21:30N 36°41' W 123°08'612.8
2018-Jan-11 21:00N 36°36' W 123°03'713.0
2018-Jan-11 20:28N 36°30' W 122°58'812.8
2018-Jan-11 19:49N 36°23' W 122°52'412.9
2018-Jan-11 19:30N 36°20' W 122°49'612.9
2018-Jan-11 19:00N 36°15' W 122°44'713.0
2018-Jan-11 18:30N 36°10' W 122°39'713.3
2018-Jan-11 18:00N 36°05' W 122°34'713.2
2018-Jan-11 17:30N 35°59' W 122°29'713.0
2018-Jan-11 17:00N 35°54' W 122°24'713.2
2018-Jan-11 16:30N 35°49' W 122°19'713.4
2018-Jan-11 16:00N 35°44' W 122°14'713.2
2018-Jan-11 15:30N 35°39' W 122°10'713.2
2018-Jan-11 14:59N 35°33' W 122°05'613.2
2018-Jan-11 14:30N 35°28' W 121°60'713.4
2018-Jan-11 14:00N 35°23' W 121°54'713.4
2018-Jan-11 13:30N 35°17' W 121°50'713.5
2018-Jan-11 13:01N 35°12' W 121°45'713.3
2018-Jan-11 12:31N 35°07' W 121°40'713.5
2018-Jan-11 12:01N 35°01' W 121°35'713.2
2018-Jan-11 11:31N 34°56' W 121°30'713.2
2018-Jan-11 11:00N 34°51' W 121°25'713.2
2018-Jan-11 10:31N 34°46' W 121°20'612.9
2018-Jan-11 10:00N 34°41' W 121°15'612.6
2018-Jan-11 09:31N 34°36' W 121°10'612.5
2018-Jan-11 09:00N 34°32' W 121°04'612.9
2018-Jan-11 08:30N 34°29' W 120°58'612.7
2018-Jan-11 08:01N 34°26' W 120°51'712.4
2018-Jan-11 07:29N 34°24' W 120°43'612.3
2018-Jan-11 07:00N 34°23' W 120°36'812.5
2018-Jan-11 06:23N 34°21' W 120°27'512.8
2018-Jan-11 06:00N 34°19' W 120°21'613.0
2018-Jan-11 05:30N 34°18' W 120°14'613.1
2018-Jan-11 05:01N 34°16' W 120°06'712.9
2018-Jan-11 04:29N 34°14' W 119°58'612.8
2018-Jan-11 04:00N 34°12' W 119°51'612.8
2018-Jan-11 03:30N 34°11' W 119°44'712.9
2018-Jan-11 03:00N 34°09' W 119°36'713.2
2018-Jan-11 02:30N 34°07' W 119°29'714.4
2018-Jan-11 01:59N 34°06' W 119°20'611.4
2018-Jan-11 01:28N 34°08' W 119°13'1 2.4
2018-Jan-11 00:55N 34°09' W 119°12'0 0.0
2018-Jan-10 23:11N 34°09' W 119°12'0 0.0
2018-Jan-10 19:26N 34°09' W 119°12'0 0.0
2018-Jan-10 14:19N 34°09' W 119°12'0 0.0
2018-Jan-10 13:53N 34°09' W 119°12'0 0.3
2018-Jan-10 13:30N 34°09' W 119°12'3 5.9
2018-Jan-10 13:00N 34°07' W 119°14'4 7.2
2018-Jan-10 12:28N 34°03' W 119°13'510.4
2018-Jan-10 11:58N 34°00' W 119°08'510.4
2018-Jan-10 11:30N 33°58' W 119°03'610.1
2018-Jan-10 10:57N 33°55' W 118°57'511.0
2018-Jan-10 10:30N 33°53' W 118°51'510.9
2018-Jan-10 10:00N 33°50' W 118°46'611.3
2018-Jan-10 09:29N 33°47' W 118°40'611.4
2018-Jan-10 09:00N 33°45' W 118°34'510.9
2018-Jan-10 08:30N 33°42' W 118°28'510.8
2018-Jan-10 08:00N 33°39' W 118°23'611.3
2018-Jan-10 07:27N 33°38' W 118°15'2111.5
2018-Jan-10 05:36N 33°19' W 118°02'112.8
2018-Jan-10 05:30N 33°18' W 118°02'713.2
2018-Jan-10 05:00N 33°12' W 117°59'713.9
2018-Jan-10 04:30N 33°06' W 117°57'713.9
2018-Jan-10 04:00N 32°59' W 117°54'713.8
2018-Jan-10 03:30N 32°52' W 117°51'713.7
2018-Jan-10 03:00N 32°46' W 117°48'613.3
2018-Jan-10 02:31N 32°40' W 117°45'815.3
2018-Jan-10 02:00N 32°33' W 117°42'815.5
2018-Jan-10 01:31N 32°25' W 117°39'  
2018-Jan-02 11:25N 09°17' W 079°55'0 0.3
2018-Jan-02 11:00N 09°17' W 079°55'2 3.3
2018-Jan-02 10:30N 09°19' W 079°55'4 8.5
2018-Jan-02 10:00N 09°23' W 079°55'3 6.3
2018-Jan-02 09:31N 09°26' W 079°54'2 1.6
2018-Jan-02 08:29N 09°27' W 079°53'0 0.0
2018-Jan-02 07:59N 09°26' W 079°53'0 0.1
2018-Jan-02 07:29N 09°26' W 079°53'0 0.0
2018-Jan-02 06:53N 09°26' W 079°53'0 0.0
2018-Jan-02 06:29N 09°26' W 079°53'0 0.0
2018-Jan-02 05:59N 09°26' W 079°53'  

Dump ship's entire track history